Time;durP1;ratioP1;P1;durP2;ratioP2;P2;SDS_P1;SDS_P2;PMS_P1;PMS_P2;Temp;Humidity;BMP_temperature;BMP_pressure;BME280_temperature;BME280_humidity;BME280_pressure;Samples;Min_cycle;Max_cycle;Signal;HPM_P1;HPM_P2
2023/08/08 00:01:21;;;;;;;2.65;1.48;;;;;;;15.36;100.00;100452.56;5031733;28;20024;-81
2023/08/08 00:03:47;;;;;;;1.95;1.60;;;;;;;15.33;100.00;100450.25;5052893;28;20032;-81
2023/08/08 00:06:12;;;;;;;4.63;1.50;;;;;;;15.31;100.00;100449.59;5031926;28;20544;-81
2023/08/08 00:08:38;;;;;;;4.88;1.67;;;;;;;15.32;100.00;100452.09;5068768;28;20051;-81
2023/08/08 00:11:04;;;;;;;3.00;1.40;;;;;;;15.33;100.00;100456.44;5049635;28;20036;-81
2023/08/08 00:13:30;;;;;;;5.20;2.05;;;;;;;15.33;100.00;100448.44;5054351;28;20386;-81
2023/08/08 00:15:56;;;;;;;2.53;1.83;;;;;;;15.27;100.00;100449.13;5062199;28;20020;-81
2023/08/08 00:18:22;;;;;;;4.45;1.95;;;;;;;15.17;100.00;100446.69;5067559;28;20132;-80
2023/08/08 00:20:48;;;;;;;2.28;1.88;;;;;;;15.07;100.00;100443.41;5025496;28;20044;-80
2023/08/08 00:23:13;;;;;;;3.10;1.83;;;;;;;15.02;100.00;100435.13;5019070;28;20029;-81
2023/08/08 00:25:39;;;;;;;4.45;1.55;;;;;;;14.97;100.00;100433.81;5053211;28;20518;-80
2023/08/08 00:28:05;;;;;;;7.03;1.20;;;;;;;15.00;100.00;100444.09;5049982;28;20028;-81
2023/08/08 00:30:31;;;;;;;6.97;1.65;;;;;;;15.04;100.00;100433.09;5030339;28;20075;-81
2023/08/08 00:32:57;;;;;;;6.03;1.98;;;;;;;15.04;100.00;100433.94;5033599;28;20494;-81
2023/08/08 00:35:22;;;;;;;6.68;2.20;;;;;;;15.05;100.00;100435.59;5052137;28;20125;-80
2023/08/08 00:37:49;;;;;;;2.88;1.45;;;;;;;15.08;100.00;100431.78;5061970;28;20074;-81
2023/08/08 00:40:14;;;;;;;6.35;1.98;;;;;;;15.08;100.00;100437.91;5046857;28;20028;-80
2023/08/08 00:42:41;;;;;;;3.25;1.63;;;;;;;15.08;100.00;100434.44;5054756;28;20115;-80
2023/08/08 00:45:07;;;;;;;4.78;1.63;;;;;;;15.06;100.00;100425.78;5045414;28;20497;-81
2023/08/08 00:47:34;;;;;;;5.07;1.83;;;;;;;14.98;100.00;100418.66;5049938;28;20394;-80
2023/08/08 00:50:03;;;;;;;3.47;1.80;;;;;;;14.94;100.00;100422.69;5032426;28;20032;-79
2023/08/08 00:52:30;;;;;;;5.35;1.70;;;;;;;14.93;100.00;100419.19;5030368;28;20098;-80
2023/08/08 00:54:56;;;;;;;5.85;1.55;;;;;;;14.93;100.00;100413.88;5068047;28;20462;-80
2023/08/08 00:57:22;;;;;;;4.15;1.58;;;;;;;14.95;100.00;100425.19;5065920;28;20485;-80
2023/08/08 00:59:48;;;;;;;4.80;1.60;;;;;;;14.97;100.00;100422.34;5031209;28;20065;-81
2023/08/08 01:02:14;;;;;;;5.95;1.77;;;;;;;15.00;100.00;100422.81;5045564;28;20048;-81
2023/08/08 01:04:41;;;;;;;2.25;1.50;;;;;;;15.01;100.00;100418.31;5046425;28;20040;-80
2023/08/08 01:07:17;;;;;;;5.57;1.65;;;;;;;15.00;100.00;100406.03;5032628;28;20056;-80
2023/08/08 01:09:54;;;;;;;3.92;1.80;;;;;;;14.99;100.00;100405.19;5048975;28;20056;-80
2023/08/08 01:12:21;;;;;;;3.95;1.40;;;;;;;14.92;100.00;100406.91;5013569;28;20059;-80
2023/08/08 01:14:46;;;;;;;4.05;1.45;;;;;;;14.85;100.00;100390.78;5061781;28;20032;-80
2023/08/08 01:17:14;;;;;;;10.15;1.40;;;;;;;14.84;100.00;100393.63;5031150;28;20224;-80
2023/08/08 01:19:40;;;;;;;5.38;1.20;;;;;;;14.84;100.00;100401.63;5049649;28;20124;-80
2023/08/08 01:22:14;;;;;;;8.20;1.75;;;;;;;14.86;100.00;100395.09;5030429;28;20025;-80
2023/08/08 01:24:40;;;;;;;6.30;1.52;;;;;;;14.86;100.00;100391.59;5039335;28;20041;-81
2023/08/08 01:27:07;;;;;;;3.20;1.30;;;;;;;14.84;100.00;100386.47;5044039;28;20048;-80
2023/08/08 01:29:32;;;;;;;5.88;1.50;;;;;;;14.82;100.00;100390.31;5045559;28;20025;-80
2023/08/08 01:31:58;;;;;;;4.20;1.50;;;;;;;14.81;100.00;100393.97;5026234;28;20056;-81
2023/08/08 01:34:25;;;;;;;7.70;1.60;;;;;;;14.78;100.00;100388.97;5048298;28;20029;-81
2023/08/08 01:37:03;;;;;;;4.95;1.58;;;;;;;14.74;100.00;100393.81;5030452;28;20070;-80
2023/08/08 01:39:32;;;;;;;5.28;1.80;;;;;;;14.68;100.00;100387.34;5050408;28;20035;-81
2023/08/08 01:42:00;;;;;;;4.78;1.77;;;;;;;14.66;100.00;100381.38;5039661;28;20034;-80
2023/08/08 01:44:28;;;;;;;3.30;1.75;;;;;;;14.64;100.00;100372.72;5044325;28;20041;-81
2023/08/08 01:46:54;;;;;;;3.45;1.88;;;;;;;14.59;100.00;100370.59;5034667;28;20033;-81
2023/08/08 01:49:20;;;;;;;3.45;1.90;;;;;;;14.60;100.00;100387.38;5024539;28;20029;-81
2023/08/08 01:51:48;;;;;;;4.50;2.05;;;;;;;14.62;100.00;100378.22;5043512;28;20037;-81
2023/08/08 01:54:14;;;;;;;7.28;1.70;;;;;;;14.62;100.00;100372.09;5041030;28;20502;-81
2023/08/08 01:56:39;;;;;;;7.20;1.85;;;;;;;14.63;100.00;100373.75;5023836;28;20044;-80
2023/08/08 01:59:05;;;;;;;4.70;1.73;;;;;;;14.62;100.00;100372.91;5043360;28;20086;-81
2023/08/08 02:01:31;;;;;;;3.88;1.67;;;;;;;14.63;100.00;100379.91;5046962;28;20028;-81
2023/08/08 02:03:57;;;;;;;4.20;1.40;;;;;;;14.67;100.00;100375.03;5043479;28;20044;-81
2023/08/08 02:06:23;;;;;;;3.67;1.38;;;;;;;14.69;100.00;100373.03;5044463;28;20099;-80
2023/08/08 02:08:48;;;;;;;6.07;1.52;;;;;;;14.73;100.00;100368.22;5025102;28;20044;-80
2023/08/08 02:11:14;;;;;;;3.15;1.38;;;;;;;14.73;100.00;100368.22;5018722;28;20033;-80
2023/08/08 02:13:41;;;;;;;4.32;1.40;;;;;;;14.77;100.00;100364.19;5021284;28;20029;-81
2023/08/08 02:16:07;;;;;;;3.28;1.50;;;;;;;14.80;100.00;100374.50;5027020;28;20044;-81
2023/08/08 02:18:33;;;;;;;2.65;1.27;;;;;;;14.81;100.00;100368.19;5035784;28;20040;-80
2023/08/08 02:20:58;;;;;;;3.03;1.08;;;;;;;14.83;100.00;100370.66;5033188;28;20063;-80
2023/08/08 02:23:26;;;;;;;5.47;1.35;;;;;;;14.86;100.00;100373.81;5035814;28;20613;-80
2023/08/08 02:25:52;;;;;;;2.60;1.50;;;;;;;14.88;100.00;100373.66;5043375;28;20082;-80
2023/08/08 02:28:17;;;;;;;3.95;1.42;;;;;;;14.87;100.00;100372.81;5026965;28;20028;-80
2023/08/08 02:30:44;;;;;;;3.47;1.40;;;;;;;14.83;100.00;100370.66;5039537;28;20033;-80
2023/08/08 02:33:10;;;;;;;5.80;2.00;;;;;;;14.74;100.00;100364.53;5037318;28;20026;-80
2023/08/08 02:35:37;;;;;;;11.25;1.90;;;;;;;14.59;100.00;100369.75;5014525;28;20044;-80
2023/08/08 02:38:03;;;;;;;2.28;1.05;;;;;;;14.47;100.00;100370.16;5021303;28;20082;-80
2023/08/08 02:40:29;;;;;;;4.28;1.63;;;;;;;14.47;100.00;100362.16;5041605;28;20029;-80
2023/08/08 02:42:55;;;;;;;4.85;1.88;;;;;;;14.48;100.00;100357.66;5042497;28;20032;-80
2023/08/08 02:45:21;;;;;;;3.63;1.30;;;;;;;14.44;100.00;100351.03;5026890;28;20102;-80
2023/08/08 02:47:47;;;;;;;5.38;1.10;;;;;;;14.47;100.00;100356.84;5046131;28;20463;-80
2023/08/08 02:50:13;;;;;;;4.03;1.55;;;;;;;14.51;100.00;100349.34;5027839;28;20033;-80
2023/08/08 02:52:39;;;;;;;5.93;1.38;;;;;;;14.58;100.00;100357.47;5041151;28;20045;-80
2023/08/08 02:55:05;;;;;;;2.45;1.20;;;;;;;14.60;100.00;100353.66;5037464;28;20025;-80
2023/08/08 02:57:31;;;;;;;10.35;1.55;;;;;;;14.63;100.00;100352.47;5026816;28;20490;-80
2023/08/08 02:59:57;;;;;;;4.00;1.60;;;;;;;14.61;100.00;100352.63;5020307;28;20041;-80
2023/08/08 03:02:24;;;;;;;7.85;1.63;;;;;;;14.56;100.00;100349.66;5044511;28;20036;-80
2023/08/08 03:04:51;;;;;;;3.45;1.38;;;;;;;14.54;100.00;100351.66;5042570;28;20038;-80
2023/08/08 03:07:16;;;;;;;5.50;1.73;;;;;;;14.54;100.00;100348.19;5040871;28;20045;-80
2023/08/08 03:09:42;;;;;;;4.25;1.38;;;;;;;14.56;100.00;100328.38;5046753;28;20040;-80
2023/08/08 03:12:10;;;;;;;5.45;1.48;;;;;;;14.59;100.00;100341.31;5030147;28;20086;-83
2023/08/08 03:14:36;;;;;;;2.55;1.40;;;;;;;14.62;100.00;100342.84;5025637;28;20033;-80
2023/08/08 03:17:03;;;;;;;5.38;1.40;;;;;;;14.61;100.00;100341.16;5027327;28;20028;-80
2023/08/08 03:19:30;;;;;;;3.15;1.58;;;;;;;14.61;100.00;100344.66;5042566;28;20049;-80
2023/08/08 03:21:58;;;;;;;5.63;1.40;;;;;;;14.60;100.00;100350.16;5026849;28;20029;-80
2023/08/08 03:24:24;;;;;;;2.38;1.55;;;;;;;14.54;100.00;100345.53;5041204;28;20060;-81
2023/08/08 03:26:50;;;;;;;2.53;1.60;;;;;;;14.48;100.00;100344.38;5042376;28;20495;-80
2023/08/08 03:29:16;;;;;;;5.10;1.30;;;;;;;14.45;100.00;100337.56;5028332;28;20040;-80
2023/08/08 03:31:46;;;;;;;7.28;1.45;;;;;;;14.36;100.00;100350.09;5025539;28;20067;-80
2023/08/08 03:34:12;;;;;;;4.10;1.50;;;;;;;14.31;100.00;100347.09;5027203;28;20056;-80
2023/08/08 03:36:39;;;;;;;5.22;1.52;;;;;;;14.25;100.00;100348.59;5011108;28;20036;-80
2023/08/08 03:39:07;;;;;;;2.72;1.65;;;;;;;14.22;100.00;100340.97;5031345;28;20044;-80
2023/08/08 03:41:34;;;;;;;6.90;1.70;;;;;;;14.20;100.00;100347.47;5050688;28;20121;-80
2023/08/08 03:44:00;;;;;;;8.55;1.95;;;;;;;14.17;100.00;100335.34;5040874;28;20064;-80
2023/08/08 03:46:26;;;;;;;1.52;1.20;;;;;;;14.20;100.00;100343.00;5028537;28;20132;-80
2023/08/08 03:48:52;;;;;;;4.40;1.92;;;;;;;14.25;100.00;100339.81;5048704;28;20490;-80
2023/08/08 03:51:18;;;;;;;5.38;2.05;;;;;;;14.29;100.00;100340.28;5047284;28;20534;-80
2023/08/08 03:53:44;;;;;;;4.93;2.30;;;;;;;14.27;100.00;100328.00;5049014;28;20031;-80
2023/08/08 03:56:09;;;;;;;7.38;1.75;;;;;;;14.29;100.00;100321.66;5032333;28;20037;-80
2023/08/08 03:58:37;;;;;;;4.47;1.77;;;;;;;14.27;100.00;100322.69;5030251;28;20049;-80
2023/08/08 04:01:03;;;;;;;5.22;1.92;;;;;;;14.27;100.00;100328.00;5032440;28;20067;-80
2023/08/08 04:03:29;;;;;;;4.50;1.77;;;;;;;14.26;100.00;100325.50;5046867;28;20057;-80
2023/08/08 04:05:55;;;;;;;2.55;1.55;;;;;;;14.28;100.00;100326.19;5028544;28;20037;-80
2023/08/08 04:08:21;;;;;;;8.55;1.35;;;;;;;14.32;100.00;100330.13;5033015;28;20044;-80
2023/08/08 04:10:47;;;;;;;6.88;1.42;;;;;;;14.41;100.00;100341.59;5049479;28;20040;-79
2023/08/08 04:13:13;;;;;;;2.95;1.42;;;;;;;14.47;100.00;100327.59;5030766;28;20036;-80
2023/08/08 04:15:38;;;;;;;3.38;1.70;;;;;;;14.49;100.00;100314.94;5052007;28;20558;-80
2023/08/08 04:18:08;;;;;;;5.40;2.00;;;;;;;14.45;100.00;100310.97;5040007;28;20099;-80
2023/08/08 04:20:34;;;;;;;12.50;2.08;;;;;;;14.42;100.00;100291.88;5023313;28;20605;-80
2023/08/08 04:23:00;;;;;;;3.60;1.95;;;;;;;14.37;100.00;100287.06;5030652;28;20060;-79
2023/08/08 04:25:26;;;;;;;5.82;1.70;;;;;;;14.34;100.00;100290.94;5045726;28;20444;-79
2023/08/08 04:27:53;;;;;;;1.88;1.67;;;;;;;14.31;100.00;100290.44;5045195;28;20033;-80
2023/08/08 04:30:19;;;;;;;4.97;2.25;;;;;;;14.30;100.00;100296.75;5036008;28;20175;-80
2023/08/08 04:32:45;;;;;;;3.08;1.73;;;;;;;14.28;100.00;100294.28;5042197;28;20445;-80
2023/08/08 04:35:11;;;;;;;6.95;2.20;;;;;;;14.21;100.00;100285.31;5048534;28;20025;-80
2023/08/08 04:37:37;;;;;;;6.47;2.53;;;;;;;14.12;100.00;100292.50;5038176;28;20044;-80
2023/08/08 04:40:03;;;;;;;7.47;2.10;;;;;;;14.03;100.00;100283.72;5040508;28;20038;-79
2023/08/08 04:42:30;;;;;;;7.15;3.33;;;;;;;13.95;100.00;100287.22;5042764;28;20084;-79
2023/08/08 04:44:55;;;;;;;7.03;2.60;;;;;;;13.90;100.00;100281.63;5040578;28;20061;-80
2023/08/08 04:47:21;;;;;;;5.30;2.72;;;;;;;13.85;100.00;100289.25;5037824;28;20030;-80
2023/08/08 04:49:47;;;;;;;7.95;3.00;;;;;;;13.73;100.00;100281.63;5031518;28;20040;-80
2023/08/08 04:52:13;;;;;;;8.38;2.72;;;;;;;13.70;100.00;100279.31;5011524;28;20033;-80
2023/08/08 04:54:38;;;;;;;8.43;3.03;;;;;;;13.75;100.00;100284.13;5042595;28;20430;-80
2023/08/08 04:57:05;;;;;;;5.97;3.10;;;;;;;13.78;100.00;100294.41;5059621;28;20029;-80
2023/08/08 04:59:30;;;;;;;4.88;2.97;;;;;;;13.73;100.00;100296.75;5043422;28;20392;-79
2023/08/08 05:01:56;;;;;;;9.23;2.70;;;;;;;13.69;100.00;100280.34;5042881;28;20033;-80
2023/08/08 05:04:22;;;;;;;3.67;2.80;;;;;;;13.71;100.00;100278.31;4981953;28;20116;-80
2023/08/08 05:06:48;;;;;;;7.82;3.17;;;;;;;13.72;100.00;100279.16;5029605;28;20105;-80
2023/08/08 05:09:13;;;;;;;6.50;2.80;;;;;;;13.75;100.00;100282.31;5024723;28;20108;-80
2023/08/08 05:11:39;;;;;;;7.45;2.70;;;;;;;13.77;100.00;100290.09;5044209;28;20060;-80
2023/08/08 05:14:05;;;;;;;8.13;3.03;;;;;;;13.74;100.00;100288.59;5039476;28;20070;-80
2023/08/08 05:16:31;;;;;;;5.35;2.58;;;;;;;13.75;100.00;100290.28;5048638;28;20036;-80
2023/08/08 05:18:57;;;;;;;6.10;2.88;;;;;;;13.78;100.00;100275.81;5045810;28;20037;-80
2023/08/08 05:21:23;;;;;;;7.28;2.70;;;;;;;13.80;100.00;100259.72;5020625;28;20034;-80
2023/08/08 05:23:48;;;;;;;2.78;2.47;;;;;;;13.82;100.00;100263.03;5038622;28;20029;-79
2023/08/08 05:26:15;;;;;;;4.28;2.42;;;;;;;13.86;100.00;100272.31;5037821;28;20037;-80
2023/08/08 05:28:41;;;;;;;8.07;2.42;;;;;;;13.92;100.00;100270.81;5028181;28;20048;-80
2023/08/08 05:31:07;;;;;;;6.00;2.35;;;;;;;13.93;100.00;100281.28;5045691;28;20037;-80
2023/08/08 05:33:33;;;;;;;3.92;2.30;;;;;;;13.88;100.00;100291.56;5044682;28;20036;-80
2023/08/08 05:35:59;;;;;;;5.55;2.67;;;;;;;13.88;100.00;100297.72;5037075;28;20124;-80
2023/08/08 05:38:25;;;;;;;8.50;2.80;;;;;;;13.94;100.00;100298.88;5046609;28;20063;-80
2023/08/08 05:40:50;;;;;;;6.78;2.53;;;;;;;13.90;100.00;100308.19;5027514;28;20036;-82
2023/08/08 05:43:18;;;;;;;3.47;2.55;;;;;;;13.86;100.00;100306.84;5045544;28;20045;-82
2023/08/08 05:45:45;;;;;;;5.82;3.15;;;;;;;13.84;100.00;100304.34;5036912;28;20040;-82
2023/08/08 05:48:12;;;;;;;2.78;2.42;;;;;;;13.83;100.00;100301.88;5044291;28;20041;-82
2023/08/08 05:50:41;;;;;;;4.70;2.92;;;;;;;13.92;100.00;100314.13;5048109;28;20037;-80
2023/08/08 05:53:07;;;;;;;4.13;2.47;;;;;;;13.92;100.00;100314.13;5014707;28;20032;-79
2023/08/08 05:55:32;;;;;;;5.00;2.47;;;;;;;13.89;100.00;100319.78;5038379;28;20403;-79
2023/08/08 05:57:58;;;;;;;5.38;2.95;;;;;;;13.88;100.00;100305.69;5049651;28;20029;-80
2023/08/08 06:00:24;;;;;;;4.28;2.97;;;;;;;13.86;100.00;100301.53;5032820;28;20029;-80
2023/08/08 06:02:50;;;;;;;5.20;2.65;;;;;;;13.80;100.00;100307.53;5033146;28;20394;-80
2023/08/08 06:05:17;;;;;;;7.95;3.03;;;;;;;13.72;100.00;100309.22;5039412;28;20026;-80
2023/08/08 06:07:43;;;;;;;4.82;2.47;;;;;;;13.76;100.00;100317.69;5037999;28;20028;-80
2023/08/08 06:10:10;;;;;;;3.78;2.80;;;;;;;13.74;100.00;100315.16;5037524;28;20028;-80
2023/08/08 06:12:36;;;;;;;6.10;2.50;;;;;;;13.73;100.00;100315.34;5020762;28;21122;-80
2023/08/08 06:15:03;;;;;;;4.85;2.75;;;;;;;13.77;100.00;100306.03;5013891;28;20036;-79
2023/08/08 06:17:30;;;;;;;3.78;1.98;;;;;;;13.71;100.00;100298.75;5026444;28;20036;-80
2023/08/08 06:19:56;;;;;;;7.47;3.00;;;;;;;13.69;100.00;100295.44;5032392;28;20037;-80
2023/08/08 06:22:23;;;;;;;8.27;2.58;;;;;;;13.74;100.00;100299.22;5030521;28;20039;-80
2023/08/08 06:24:49;;;;;;;3.15;2.20;;;;;;;13.73;100.00;100304.72;5049081;28;20028;-80
2023/08/08 06:27:15;;;;;;;4.70;2.40;;;;;;;13.76;100.00;100307.06;5032239;28;20045;-80
2023/08/08 06:29:41;;;;;;;4.28;2.20;;;;;;;13.74;100.00;100309.03;5042578;28;20375;-80
2023/08/08 06:32:07;;;;;;;4.18;2.50;;;;;;;13.79;100.00;100300.56;5048967;28;20036;-80
2023/08/08 06:34:33;;;;;;;10.07;2.70;;;;;;;13.77;100.00;100306.88;5034138;28;20667;-79
2023/08/08 06:36:59;;;;;;;2.63;2.40;;;;;;;13.75;100.00;100303.56;5025178;28;20178;-79
2023/08/08 06:39:25;;;;;;;3.42;2.50;;;;;;;13.74;100.00;100317.00;5045920;28;20035;-80
2023/08/08 06:41:51;;;;;;;5.07;2.58;;;;;;;13.71;100.00;100314.69;5040765;28;20051;-80
2023/08/08 06:44:32;;;;;;;6.97;2.90;;;;;;;13.74;100.00;100317.81;5026658;28;20040;-80
2023/08/08 06:46:58;;;;;;;3.58;2.78;;;;;;;13.74;100.00;100307.19;5044968;28;20499;-79
2023/08/08 06:49:24;;;;;;;9.07;3.28;;;;;;;13.69;100.00;100312.22;5031433;28;20063;-80
2023/08/08 06:51:49;;;;;;;4.65;2.60;;;;;;;13.66;100.00;100307.22;5017952;28;20032;-80
2023/08/08 06:54:15;;;;;;;6.07;3.10;;;;;;;13.69;100.00;100314.88;5050545;28;20025;-80
2023/08/08 06:56:41;;;;;;;5.35;2.90;;;;;;;13.78;100.00;100328.94;5046592;28;20097;-80
2023/08/08 06:59:07;;;;;;;2.80;2.47;;;;;;;13.81;100.00;100336.56;5042347;28;20028;-80
2023/08/08 07:01:33;;;;;;;3.95;2.80;;;;;;;13.84;100.00;100332.78;5050708;28;20044;-80
2023/08/08 07:03:59;;;;;;;7.03;2.90;;;;;;;13.83;100.00;100334.59;5029299;28;20029;-80
2023/08/08 07:06:25;;;;;;;5.30;2.65;;;;;;;13.85;100.00;100318.47;5042225;28;20088;-79
2023/08/08 07:08:51;;;;;;;10.15;3.20;;;;;;;13.86;100.00;100307.69;5042332;28;20033;-80
2023/08/08 07:11:17;;;;;;;3.30;2.38;;;;;;;13.84;100.00;100320.31;5060380;28;20037;-80
2023/08/08 07:13:43;;;;;;;9.07;2.88;;;;;;;13.87;100.00;100309.34;5065184;28;20032;-80
2023/08/08 07:16:09;;;;;;;3.90;2.58;;;;;;;13.96;100.00;100298.69;5036500;28;20541;-80
2023/08/08 07:18:34;;;;;;;5.47;2.72;;;;;;;14.04;100.00;100306.66;5068880;28;20055;-79
2023/08/08 07:21:00;;;;;;;9.50;3.03;;;;;;;14.04;100.00;100309.31;5062360;28;20036;-79
2023/08/08 07:23:26;;;;;;;8.05;2.78;;;;;;;14.05;100.00;100312.81;5053677;28;20032;-80
2023/08/08 07:25:52;;;;;;;6.28;3.00;;;;;;;14.06;100.00;100314.44;5052798;28;20037;-80
2023/08/08 07:28:18;;;;;;;6.40;3.08;;;;;;;14.08;100.00;100323.91;5035703;28;20032;-80
2023/08/08 07:30:43;;;;;;;7.43;3.33;;;;;;;14.14;100.00;100325.06;5048803;28;20882;-80
2023/08/08 07:33:09;;;;;;;5.32;3.58;;;;;;;14.22;100.00;100332.19;5032526;28;20039;-79
2023/08/08 07:35:35;;;;;;;4.57;3.08;;;;;;;14.28;100.00;100310.22;5042425;28;20089;-80
2023/08/08 07:38:01;;;;;;;8.85;3.65;;;;;;;14.38;100.00;100310.03;5046549;28;20036;-80
2023/08/08 07:40:27;;;;;;;9.73;3.63;;;;;;;14.52;100.00;100325.22;5050863;28;20490;-80
2023/08/08 07:42:53;;;;;;;9.80;3.45;;;;;;;14.54;100.00;100330.38;5024006;28;20036;-80
2023/08/08 07:45:19;;;;;;;9.02;3.47;;;;;;;14.55;100.00;100332.06;5031602;28;20039;-80
2023/08/08 07:47:45;;;;;;;4.10;3.05;;;;;;;14.66;100.00;100330.00;5030349;28;20037;-80
2023/08/08 07:50:12;;;;;;;6.68;3.15;;;;;;;14.65;100.00;100339.81;5041259;28;20090;-80
2023/08/08 07:52:38;;;;;;;5.57;2.88;;;;;;;14.69;100.00;100346.44;5053484;28;20037;-80
2023/08/08 07:55:05;;;;;;;4.40;2.53;;;;;;;14.76;100.00;100334.09;5022919;28;20114;-80
2023/08/08 07:57:34;;;;;;;8.32;2.80;;;;;;;14.84;100.00;100332.44;5055834;28;20048;-80
2023/08/08 08:00:07;;;;;;;5.20;2.58;;;;;;;14.86;100.00;100325.91;5052382;28;20052;-80
2023/08/08 08:02:39;;;;;;;8.85;2.63;;;;;;;14.94;100.00;100321.56;5045750;28;20056;-80
2023/08/08 08:05:07;;;;;;;5.47;2.67;;;;;;;15.00;100.00;100299.56;5032221;28;20063;-80
2023/08/08 08:07:34;;;;;;;5.97;2.50;;;;;;;15.13;100.00;100298.94;5045886;28;20087;-80
2023/08/08 08:10:02;;;;;;;4.93;2.58;;;;;;;15.30;100.00;100298.84;5043840;28;20132;-80
2023/08/08 08:12:30;;;;;;;6.05;2.78;;;;;;;15.42;100.00;100307.22;5039412;28;20221;-80
2023/08/08 08:14:55;;;;;;;7.72;2.80;;;;;;;15.49;100.00;100313.50;5037632;28;20028;-80
2023/08/08 08:17:21;;;;;;;6.45;3.28;;;;;;;15.47;100.00;100313.66;5050685;28;20335;-80
2023/08/08 08:19:47;;;;;;;3.85;2.28;;;;;;;15.38;100.00;100312.91;5035191;28;20041;-80
2023/08/08 08:22:13;;;;;;;3.63;2.72;;;;;;;15.38;100.00;100314.75;5053387;28;20056;-80
2023/08/08 08:24:38;;;;;;;4.97;2.35;;;;;;;15.44;100.00;100319.34;5049804;28;20039;-80
2023/08/08 08:27:04;;;;;;;5.32;2.42;;;;;;;15.47;100.00;100313.66;5031171;28;20043;-80
2023/08/08 08:29:31;;;;;;;4.40;2.92;;;;;;;15.55;100.00;100304.78;5045261;28;20056;-80
2023/08/08 08:31:57;;;;;;;6.90;2.50;;;;;;;15.71;100.00;100298.47;5064639;28;20041;-80
2023/08/08 08:34:23;;;;;;;6.13;2.70;;;;;;;15.74;100.00;100297.25;5056133;28;20029;-79
2023/08/08 08:36:49;;;;;;;6.85;2.63;;;;;;;15.68;100.00;100295.31;5050869;28;20074;-80
2023/08/08 08:39:15;;;;;;;5.22;3.00;;;;;;;15.70;100.00;100301.31;5033408;28;20049;-79
2023/08/08 08:41:42;;;;;;;4.60;2.47;;;;;;;15.70;100.00;100309.31;5046972;28;20043;-80
2023/08/08 08:44:08;;;;;;;5.43;2.80;;;;;;;15.77;100.00;100322.75;5048414;28;20050;-80
2023/08/08 08:46:36;;;;;;;3.83;2.42;;;;;;;15.78;100.00;100319.88;5035175;28;20486;-80
2023/08/08 08:49:05;;;;;;;4.10;2.25;;;;;;;15.82;100.00;100320.34;5052629;28;20117;-80
2023/08/08 08:51:31;;;;;;;5.03;2.80;;;;;;;15.78;100.00;100322.56;5059593;28;20037;-80
2023/08/08 08:53:58;;;;;;;5.32;3.15;;;;;;;15.78;100.00;100322.56;5051342;28;20097;-79
2023/08/08 08:56:24;;;;;;;3.88;2.72;;;;;;;15.82;100.00;100318.50;5054586;28;20036;-79
2023/08/08 08:58:51;;;;;;;4.38;2.92;;;;;;;15.93;100.00;100306.56;5033443;28;20040;-80
2023/08/08 09:01:18;;;;;;;7.88;3.40;;;;;;;15.97;100.00;100304.38;5051659;28;20120;-80
2023/08/08 09:03:45;;;;;;;2.70;2.50;;;;;;;16.03;100.00;100309.00;5034760;28;20110;-80
2023/08/08 09:06:12;;;;;;;4.07;2.70;;;;;;;16.08;100.00;100319.94;5030794;28;20506;-80
2023/08/08 09:08:38;;;;;;;5.90;2.35;;;;;;;16.14;100.00;100310.34;5046576;28;20044;-80
2023/08/08 09:11:03;;;;;;;2.65;2.25;;;;;;;16.13;100.00;100308.72;5054005;28;20037;-80
2023/08/08 09:13:39;;;;;;;3.58;2.30;;;;;;;16.19;100.00;100302.66;5061818;28;20086;-80
2023/08/08 09:16:09;;;;;;;5.15;2.15;;;;;;;16.28;100.00;100306.03;5032442;28;20041;-80
2023/08/08 09:18:38;;;;;;;7.20;2.35;;;;;;;16.28;100.00;100295.34;5049976;28;20045;-80
2023/08/08 09:21:07;;;;;;;4.57;2.40;;;;;;;16.31;100.00;100297.66;5058590;28;20040;-80
2023/08/08 09:23:33;;;;;;;3.35;2.10;;;;;;;16.29;100.00;100305.03;5067885;28;20035;-80
2023/08/08 09:25:59;;;;;;;2.78;2.28;;;;;;;16.32;100.00;100309.16;5042402;28;20025;-80
2023/08/08 09:28:25;;;;;;;4.30;2.65;;;;;;;16.31;100.00;100307.50;5049217;28;20035;-80
2023/08/08 09:30:51;;;;;;;5.10;2.45;;;;;;;16.34;100.00;100309.81;5067310;28;20035;-80
2023/08/08 09:33:17;;;;;;;5.22;2.22;;;;;;;16.41;100.00;100308.03;5051102;28;20020;-80
2023/08/08 09:35:44;;;;;;;3.38;2.20;;;;;;;16.45;100.00;100311.97;5026518;28;20087;-80
2023/08/08 09:38:09;;;;;;;2.70;1.70;;;;;;;16.59;100.00;100325.50;5030465;28;20178;-80
2023/08/08 09:40:36;;;;;;;2.22;1.63;;;;;;;16.66;100.00;100333.56;5051756;28;20036;-80
2023/08/08 09:43:02;;;;;;;4.82;1.83;;;;;;;16.79;100.00;100336.38;5043525;28;20033;-80
2023/08/08 09:45:36;;;;;;;5.22;1.90;;;;;;;16.98;100.00;100340.28;5004952;28;20044;-80
2023/08/08 09:48:04;;;;;;;3.63;1.70;;;;;;;17.03;100.00;100345.06;5018882;28;20593;-80
2023/08/08 09:50:32;;;;;;;2.63;1.45;;;;;;;16.94;100.00;100347.03;5048825;28;20025;-80
2023/08/08 09:52:59;;;;;;;5.28;1.73;;;;;;;16.81;100.00;100353.03;5051065;28;20031;-80
2023/08/08 09:55:25;;;;;;;2.78;1.60;;;;;;;16.85;100.00;100350.84;5047135;28;20043;-81
2023/08/08 09:57:52;;;;;;;2.78;1.42;;;;;;;16.92;100.00;100346.38;5044076;28;20040;-80
2023/08/08 10:00:20;;;;;;;2.33;1.33;;;;;;;16.86;100.00;100339.97;5038419;28;20380;-80
2023/08/08 10:02:47;;;;;;;3.13;1.35;;;;;;;16.85;100.00;100340.97;5043233;28;20033;-80
2023/08/08 10:05:14;;;;;;;2.05;1.20;;;;;;;16.84;100.00;100350.00;5027179;28;20036;-80
2023/08/08 10:07:41;;;;;;;5.78;1.45;;;;;;;16.81;100.00;100360.22;5044565;28;20039;-80
2023/08/08 10:10:09;;;;;;;2.63;1.30;;;;;;;16.85;100.00;100353.50;5063280;28;20036;-80
2023/08/08 10:12:39;;;;;;;2.15;0.95;;;;;;;16.82;100.00;100359.19;5043937;28;20501;-80
2023/08/08 10:15:09;;;;;;;3.17;1.05;;;;;;;16.70;100.00;100375.72;5031961;28;20491;-80
2023/08/08 10:17:39;;;;;;;2.70;1.35;;;;;;;16.60;100.00;100370.66;5043529;28;20108;-80
2023/08/08 10:20:11;;;;;;;1.95;1.10;;;;;;;16.52;100.00;100365.41;5047798;28;20021;-80
2023/08/08 10:22:42;;;;;;;1.63;0.88;;;;;;;16.52;100.00;100369.91;5041398;28;20036;-80
2023/08/08 10:25:08;;;;;;;2.45;1.25;;;;;;;16.48;100.00;100364.97;5046558;28;20029;-80
2023/08/08 10:27:37;;;;;;;5.88;1.10;;;;;;;16.46;100.00;100359.00;5052886;28;20117;-80
2023/08/08 10:30:10;;;;;;;1.73;0.93;;;;;;;16.45;100.00;100335.97;5034398;28;20474;-80
2023/08/08 10:32:41;;;;;;;2.65;0.90;;;;;;;16.44;100.00;100329.00;5069851;28;20059;-80
2023/08/08 10:35:08;;;;;;;2.53;0.90;;;;;;;16.41;100.00;100328.53;5016134;28;20036;-80
2023/08/08 10:37:35;;;;;;;2.95;1.02;;;;;;;16.38;100.00;100329.75;5012718;28;20032;-80
2023/08/08 10:40:05;;;;;;;2.70;1.60;;;;;;;16.45;100.00;100335.19;5049939;28;20123;-80
2023/08/08 10:42:33;;;;;;;4.95;0.85;;;;;;;16.45;100.00;100327.16;5038105;28;20356;-80
2023/08/08 10:45:01;;;;;;;2.72;1.02;;;;;;;16.41;100.00;100323.19;5035191;28;20044;-80
2023/08/08 10:47:36;;;;;;;1.38;0.77;;;;;;;16.51;100.00;100325.59;5029901;28;20045;-80
2023/08/08 10:50:21;;;;;;;1.40;0.90;;;;;;;16.51;100.00;100329.09;5050118;28;20046;-80
2023/08/08 10:52:52;;;;;;;1.60;0.85;;;;;;;16.49;100.00;100304.44;5052587;28;20029;-80
2023/08/08 10:55:28;;;;;;;2.97;0.93;;;;;;;16.52;100.00;100292.53;5033942;28;20040;-79
2023/08/08 10:58:07;;;;;;;1.35;1.08;;;;;;;16.59;100.00;100309.47;5059522;28;20116;-80
2023/08/08 11:00:35;;;;;;;2.55;0.98;;;;;;;16.60;100.00;100317.28;5065959;28;20150;-80
2023/08/08 11:03:04;;;;;;;1.85;0.80;;;;;;;16.63;100.00;100318.75;5035636;28;20044;-80
2023/08/08 11:05:35;;;;;;;2.05;1.17;;;;;;;16.71;100.00;100325.81;5051667;28;20046;-83
2023/08/08 11:08:03;;;;;;;2.92;1.10;;;;;;;16.79;100.00;100344.38;5059229;28;20502;-83
2023/08/08 11:10:34;;;;;;;1.92;1.00;;;;;;;16.78;100.00;100358.75;5056134;28;20073;-83
2023/08/08 11:13:05;;;;;;;2.50;0.90;;;;;;;16.77;100.00;100361.63;5034263;28;20573;-83
2023/08/08 11:15:36;;;;;;;2.92;1.00;;;;;;;16.70;100.00;100349.03;5048020;28;20065;-81